Marysvale, UT (84750)

4:21 AM MDT on July 28, 2016 (GMT -0600)
Poverty Ranch | | Change Station

Elev 5459 ft 38.64 °N, 112.17 °W | Updated 13 minutes ago

Clear
Clear
68.5 °F
Feels Like 68.5 °F
N
6.0
Wind Variable Wind from West

Today
High -- | Low -- °F
--% Chance of Precip.
Yesterday
High -- | Low -- °F
Precip. -- in
Pressure 29.84 in
Visibility 10.0 miles
Clouds Clear
Dew Point 27 °F
Humidity 21%
Rainfall 0.00 in
Snow Depth Not available.
6:27 AM 8:42 PM
Waning Crescent, 33% visible
METAR KMLF 280952Z AUTO 25009KT 10SM CLR 19/M04 A3009 RMK AO2 SLP103 T01941039
Pressure 29.84 in
Visibility 10.0 miles
Clouds Clear
Dew Point 27 °F
Humidity 21%
Rainfall 0.00 in
Snow Depth Not available.
6:27 AM 8:42 PM
Waning Crescent, 33% visible
METAR KMLF 280952Z AUTO 25009KT 10SM CLR 19/M04 A3009 RMK AO2 SLP103 T01941039

10-Day Weather Forecast

Almanac

Astronomy

Jul. 28, 2016 Rise Set
Actual Time
Civil Twilight
Nautical Twilight
Astronomical Twilight
Moon
Length of Visible Light
Length of Day
Tomorrow will be .
, % of the Moon is Illuminated

Today's Extremes

State Highs State Lows

Community

WunderPhotos

Upload Photos

1,928,081 photos uploaded!

WunderBlog® & News

Nearby

Air Quality

  Air Quality AQ Index Pollutant
Not available.

Snow Depth

Station Depth Elevation

Earthquake Activity

City Distance Mag. Time & Date
Minimum magnitude displayed is 2.5.

Coastal Water Temperatures

Place Temperature

Stations

Nearby Weather Stations

Station Location Temp. Windchill Dew Point Humidity Wind Precip. Elev Updated Type
                   

Watches & Warnings

There are currently no watches in effect.